createdAt,value
2023-05-22T00:01:32.393Z,6.35
2023-05-22T00:03:59.920Z,6.05
2023-05-22T00:06:27.685Z,6.38
2023-05-22T00:08:55.005Z,5.05
2023-05-22T00:11:22.957Z,6.20
2023-05-22T00:13:50.298Z,7.10
2023-05-22T00:16:17.738Z,5.32
2023-05-22T00:18:45.140Z,5.03
2023-05-22T00:21:12.538Z,4.97
2023-05-22T00:23:39.844Z,6.15
2023-05-22T00:26:07.174Z,5.50
2023-05-22T00:28:34.632Z,5.50
2023-05-22T00:31:01.962Z,4.82
2023-05-22T00:33:29.308Z,5.10
2023-05-22T00:35:56.601Z,4.43
2023-05-22T00:38:35.234Z,5.43
2023-05-22T00:41:04.277Z,4.25
2023-05-22T00:43:31.946Z,4.30
2023-05-22T00:45:59.809Z,4.82
2023-05-22T00:48:27.195Z,5.50
2023-05-22T00:50:57.139Z,7.57
2023-05-22T00:53:26.263Z,6.47
2023-05-22T00:55:54.996Z,5.43
2023-05-22T00:58:24.822Z,6.22
2023-05-22T01:00:52.386Z,4.85
2023-05-22T01:03:26.169Z,8.05
2023-05-22T01:08:21.996Z,3.97
2023-05-22T01:10:56.978Z,4.05
2023-05-22T01:14:15.359Z,5.18
2023-05-22T01:16:48.608Z,4.80
2023-05-22T01:19:41.158Z,4.32
2023-05-22T01:22:46.210Z,7.18
2023-05-22T01:25:17.077Z,6.22
2023-05-22T01:27:53.054Z,3.97
2023-05-22T01:30:49.265Z,5.90
2023-05-22T01:33:18.231Z,3.83
2023-05-22T01:35:54.034Z,7.25
2023-05-22T01:38:22.001Z,5.22
2023-05-22T01:40:49.902Z,5.80
2023-05-22T01:43:17.716Z,5.43
2023-05-22T01:45:45.165Z,5.93
2023-05-22T01:48:12.789Z,5.95
2023-05-22T01:50:40.932Z,5.10
2023-05-22T01:53:14.358Z,3.92
2023-05-22T01:55:57.625Z,5.72
2023-05-22T01:58:36.283Z,5.30
2023-05-22T02:01:05.341Z,5.90
2023-05-22T02:03:35.474Z,7.25
2023-05-22T02:06:07.741Z,4.80
2023-05-22T02:08:41.212Z,6.03
2023-05-22T02:11:11.163Z,4.53
2023-05-22T02:13:39.572Z,4.18
2023-05-22T02:16:08.362Z,4.55
2023-05-22T02:18:35.869Z,6.03
2023-05-22T02:21:03.469Z,5.28
2023-05-22T02:23:30.886Z,5.90
2023-05-22T02:25:58.315Z,6.15
2023-05-22T02:28:25.638Z,5.78
2023-05-22T02:30:53.151Z,6.25
2023-05-22T02:33:20.561Z,5.68
2023-05-22T02:35:47.902Z,6.68
2023-05-22T02:38:15.255Z,4.78
2023-05-22T02:40:42.625Z,7.10
2023-05-22T02:43:10.006Z,5.38
2023-05-22T02:45:37.280Z,4.22
2023-05-22T02:48:04.926Z,4.97
2023-05-22T02:50:32.294Z,6.90
2023-05-22T02:52:59.590Z,7.57
2023-05-22T02:55:26.934Z,4.07
2023-05-22T02:57:54.309Z,8.07
2023-05-22T03:00:22.482Z,4.10
2023-05-22T03:02:49.964Z,5.07
2023-05-22T03:05:18.202Z,6.15
2023-05-22T03:07:48.677Z,8.07
2023-05-22T03:10:16.350Z,6.20
2023-05-22T03:12:43.681Z,6.38
2023-05-22T03:15:11.980Z,5.53
2023-05-22T03:17:39.372Z,5.70
2023-05-22T03:20:08.673Z,8.13
2023-05-22T03:22:36.059Z,4.80
2023-05-22T03:25:04.029Z,4.60
2023-05-22T03:27:31.370Z,6.82
2023-05-22T03:29:58.638Z,4.57
2023-05-22T03:32:26.129Z,4.93
2023-05-22T03:34:53.501Z,6.22
2023-05-22T03:37:20.840Z,5.85
2023-05-22T03:39:48.205Z,4.88
2023-05-22T03:42:16.366Z,4.20
2023-05-22T03:44:43.677Z,4.95
2023-05-22T03:47:11.055Z,5.18
2023-05-22T03:49:38.532Z,5.25
2023-05-22T03:52:06.019Z,7.15
2023-05-22T03:54:33.380Z,5.68
2023-05-22T03:57:00.783Z,4.85
2023-05-22T03:59:28.105Z,7.15
2023-05-22T04:01:58.126Z,5.32
2023-05-22T04:04:26.887Z,6.80
2023-05-22T04:06:54.392Z,6.85
2023-05-22T04:09:21.771Z,5.78
2023-05-22T04:11:49.679Z,5.40
2023-05-22T04:14:17.053Z,4.72
2023-05-22T04:16:44.464Z,5.07
2023-05-22T04:19:12.490Z,5.60
2023-05-22T04:21:39.865Z,6.15
2023-05-22T04:24:07.594Z,7.78
2023-05-22T04:26:36.058Z,5.07
2023-05-22T04:29:04.446Z,5.10
2023-05-22T04:31:32.567Z,5.20
2023-05-22T04:34:00.390Z,4.75
2023-05-22T04:36:28.042Z,5.80
2023-05-22T04:38:55.754Z,6.75
2023-05-22T04:41:26.387Z,6.55
2023-05-22T04:43:54.069Z,5.93
2023-05-22T04:46:21.577Z,5.90
2023-05-22T04:48:49.656Z,5.35
2023-05-22T04:51:17.076Z,5.78
2023-05-22T04:53:46.257Z,5.53
2023-05-22T04:56:16.584Z,6.68
2023-05-22T04:58:53.914Z,6.15
2023-05-22T05:01:21.619Z,5.10
2023-05-22T05:03:49.135Z,6.72
2023-05-22T05:06:17.343Z,6.32
2023-05-22T05:08:46.694Z,7.32
2023-05-22T05:11:14.016Z,6.82
2023-05-22T05:13:41.739Z,6.22
2023-05-22T05:16:09.159Z,5.15
2023-05-22T05:18:37.061Z,6.75
2023-05-22T05:21:04.533Z,6.10
2023-05-22T05:23:31.830Z,5.55
2023-05-22T05:25:59.188Z,5.90
2023-05-22T05:28:26.665Z,7.07
2023-05-22T05:30:54.061Z,6.28
2023-05-22T05:33:21.644Z,6.05
2023-05-22T05:35:50.416Z,7.63
2023-05-22T05:38:17.807Z,7.28
2023-05-22T05:40:48.022Z,6.93
2023-05-22T05:43:15.556Z,6.90
2023-05-22T05:45:43.780Z,7.00
2023-05-22T05:48:12.113Z,5.93
2023-05-22T05:50:39.985Z,9.52
2023-05-22T05:53:07.961Z,6.78
2023-05-22T05:55:35.279Z,9.63
2023-05-22T05:58:02.868Z,6.97
2023-05-22T06:00:30.311Z,5.65
2023-05-22T06:02:57.880Z,7.43
2023-05-22T06:05:26.969Z,7.20
2023-05-22T06:07:54.584Z,7.57
2023-05-22T06:10:22.333Z,7.18
2023-05-22T06:12:49.731Z,5.38
2023-05-22T06:15:17.900Z,7.97
2023-05-22T06:17:45.632Z,7.45
2023-05-22T06:20:14.391Z,8.50
2023-05-22T06:22:41.694Z,7.55
2023-05-22T06:25:10.724Z,7.97
2023-05-22T06:27:38.123Z,7.65
2023-05-22T06:30:06.072Z,10.27
2023-05-22T06:32:33.637Z,7.60
2023-05-22T06:35:01.464Z,7.50
2023-05-22T06:37:28.808Z,9.35
2023-05-22T06:39:56.236Z,10.23
2023-05-22T06:42:23.643Z,7.03
2023-05-22T06:44:50.994Z,9.95
2023-05-22T06:47:19.666Z,7.95
2023-05-22T06:49:47.044Z,9.27
2023-05-22T06:52:15.120Z,11.27
2023-05-22T06:54:43.062Z,13.18
2023-05-22T06:57:11.073Z,9.93
2023-05-22T06:59:38.397Z,10.82
2023-05-22T07:02:06.312Z,10.00
2023-05-22T07:04:33.627Z,9.50
2023-05-22T07:07:01.273Z,8.57
2023-05-22T07:09:28.734Z,7.57
2023-05-22T07:11:56.086Z,7.72
2023-05-22T07:14:23.385Z,10.77
2023-05-22T07:16:51.139Z,7.75
2023-05-22T07:19:19.419Z,9.35
2023-05-22T07:21:46.877Z,11.00
2023-05-22T07:24:14.206Z,10.38
2023-05-22T07:26:46.650Z,9.48
2023-05-22T07:29:14.442Z,11.25
2023-05-22T07:31:42.423Z,9.60
2023-05-22T07:34:10.053Z,9.88
2023-05-22T07:36:38.045Z,10.63
2023-05-22T07:39:05.422Z,11.23
2023-05-22T07:41:33.186Z,11.65
2023-05-22T07:44:00.740Z,11.98
2023-05-22T07:46:28.140Z,7.75
2023-05-22T07:48:55.666Z,10.50
2023-05-22T07:51:23.091Z,11.27
2023-05-22T07:53:50.427Z,11.57
2023-05-22T07:56:17.808Z,11.68
2023-05-22T07:58:48.425Z,12.10
2023-05-22T08:01:15.795Z,11.68
2023-05-22T08:03:43.415Z,11.45
2023-05-22T08:06:11.292Z,10.35
2023-05-22T08:08:38.674Z,9.98
2023-05-22T08:11:06.134Z,11.88
2023-05-22T08:13:33.976Z,9.45
2023-05-22T08:16:01.619Z,11.25
2023-05-22T08:18:29.962Z,9.18
2023-05-22T08:20:57.690Z,9.73
2023-05-22T08:23:25.006Z,10.73
2023-05-22T08:25:52.375Z,10.05
2023-05-22T08:28:19.775Z,9.45
2023-05-22T08:30:47.087Z,7.78
2023-05-22T08:33:14.438Z,10.32
2023-05-22T08:35:41.809Z,8.93
2023-05-22T08:38:09.155Z,10.35
2023-05-22T08:40:38.538Z,10.18
2023-05-22T08:43:09.689Z,9.15
2023-05-22T08:45:37.631Z,9.13
2023-05-22T08:48:06.331Z,8.02
2023-05-22T08:50:39.454Z,8.95
2023-05-22T08:53:08.759Z,8.70
2023-05-22T08:55:36.651Z,8.20
2023-05-22T08:58:05.789Z,10.43
2023-05-22T09:00:33.735Z,7.80
2023-05-22T09:03:01.342Z,8.27
2023-05-22T09:05:28.934Z,9.75
2023-05-22T09:08:00.468Z,7.00
2023-05-22T09:10:33.006Z,8.93
2023-05-22T09:13:09.246Z,9.57
2023-05-22T09:15:40.808Z,6.90
2023-05-22T09:18:08.454Z,8.48
2023-05-22T09:20:38.256Z,7.70
2023-05-22T09:23:14.558Z,8.95
2023-05-22T09:25:43.215Z,8.27
2023-05-22T09:28:12.798Z,7.07
2023-05-22T09:30:42.625Z,8.85
2023-05-22T09:33:14.303Z,8.30
2023-05-22T09:35:42.272Z,10.32
2023-05-22T09:38:12.278Z,10.52
2023-05-22T09:40:43.381Z,7.82
2023-05-22T09:43:11.809Z,9.77
2023-05-22T09:45:39.981Z,6.78
2023-05-22T09:48:08.801Z,7.88
2023-05-22T09:50:37.025Z,6.93
2023-05-22T09:53:05.169Z,6.93
2023-05-22T09:55:33.671Z,6.63
2023-05-22T09:58:06.514Z,8.02
2023-05-22T10:00:35.272Z,6.40
2023-05-22T10:03:18.076Z,7.38
2023-05-22T10:05:52.189Z,7.07
2023-05-22T10:08:24.967Z,8.60
2023-05-22T10:10:53.320Z,8.35
2023-05-22T10:13:21.614Z,6.53
2023-05-22T10:15:51.365Z,6.80
2023-05-22T10:18:18.857Z,8.07
2023-05-22T10:20:49.513Z,7.07
2023-05-22T10:23:18.738Z,6.97
2023-05-22T10:25:46.915Z,7.03
2023-05-22T10:28:21.737Z,6.53
2023-05-22T10:31:00.288Z,7.00
2023-05-22T10:33:36.786Z,6.40
2023-05-22T10:36:24.804Z,7.72
2023-05-22T10:39:12.037Z,9.25
2023-05-22T10:41:40.142Z,7.00
2023-05-22T10:44:07.636Z,7.93
2023-05-22T10:46:36.241Z,6.90
2023-05-22T10:49:03.746Z,7.20
2023-05-22T10:51:34.362Z,7.75
2023-05-22T10:54:02.576Z,6.93
2023-05-22T10:56:35.351Z,7.15
2023-05-22T10:59:08.426Z,6.28
2023-05-22T11:01:38.540Z,6.70
2023-05-22T11:04:09.209Z,5.22
2023-05-22T11:06:45.944Z,6.03
2023-05-22T11:09:26.464Z,6.45
2023-05-22T11:12:13.963Z,5.45
2023-05-22T11:14:41.507Z,5.93
2023-05-22T11:17:12.113Z,5.63
2023-05-22T11:19:42.012Z,5.97
2023-05-22T11:22:09.624Z,5.68
2023-05-22T11:24:39.914Z,6.93
2023-05-22T11:27:07.955Z,6.03
2023-05-22T11:29:35.847Z,5.10
2023-05-22T11:32:03.674Z,6.18
2023-05-22T11:34:30.990Z,6.05
2023-05-22T11:37:02.424Z,5.97
2023-05-22T11:39:32.456Z,5.10
2023-05-22T11:41:59.742Z,5.32
2023-05-22T11:44:28.522Z,5.53
2023-05-22T11:46:56.050Z,5.38
2023-05-22T11:49:25.299Z,4.95
2023-05-22T11:51:52.917Z,6.85
2023-05-22T11:54:20.655Z,4.13
2023-05-22T11:56:48.893Z,4.38
2023-05-22T11:59:16.511Z,5.85
2023-05-22T12:01:43.906Z,5.22
2023-05-22T12:04:11.603Z,4.38
2023-05-22T12:06:39.131Z,3.88
2023-05-22T12:09:07.379Z,4.18
2023-05-22T12:11:40.581Z,4.68
2023-05-22T12:14:12.932Z,3.72
2023-05-22T12:16:40.955Z,4.40
2023-05-22T12:19:09.763Z,4.95
2023-05-22T12:21:39.504Z,4.55
2023-05-22T12:24:07.350Z,5.43
2023-05-22T12:26:34.999Z,4.57
2023-05-22T12:29:03.541Z,5.75
2023-05-22T12:31:38.990Z,5.97
2023-05-22T12:34:08.428Z,4.72
2023-05-22T12:36:38.585Z,4.88
2023-05-22T12:39:22.320Z,4.60
2023-05-22T12:41:49.746Z,3.70
2023-05-22T12:44:17.261Z,4.60
2023-05-22T12:46:44.784Z,5.00
2023-05-22T12:49:12.225Z,5.93
2023-05-22T12:51:39.652Z,6.30
2023-05-22T12:54:07.067Z,4.00
2023-05-22T12:56:34.474Z,3.35
2023-05-22T12:59:01.849Z,3.90
2023-05-22T13:01:29.332Z,4.22
2023-05-22T13:03:56.610Z,4.50
2023-05-22T13:06:24.077Z,3.60
2023-05-22T13:08:51.715Z,3.97
2023-05-22T13:11:20.149Z,4.30
2023-05-22T13:13:47.550Z,4.40
2023-05-22T13:16:14.941Z,4.30
2023-05-22T13:18:42.278Z,3.92
2023-05-22T13:21:09.683Z,3.95
2023-05-22T13:23:37.082Z,4.30
2023-05-22T13:26:04.500Z,4.47
2023-05-22T13:28:31.805Z,3.58
2023-05-22T13:30:59.898Z,4.07
2023-05-22T13:33:27.256Z,4.68
2023-05-22T13:35:54.717Z,3.50
2023-05-22T13:38:22.110Z,4.22
2023-05-22T13:40:49.637Z,3.75
2023-05-22T13:43:17.056Z,4.35
2023-05-22T13:45:44.529Z,3.55
2023-05-22T13:48:13.026Z,4.20
2023-05-22T13:50:40.587Z,3.20
2023-05-22T13:53:08.025Z,3.42
2023-05-22T13:55:36.123Z,3.40
2023-05-22T13:58:03.703Z,3.65
2023-05-22T14:00:31.111Z,3.10
2023-05-22T14:02:58.596Z,5.05
2023-05-22T14:05:26.118Z,3.45
2023-05-22T14:07:54.188Z,2.90
2023-05-22T14:10:21.688Z,3.22
2023-05-22T14:12:49.107Z,3.88
2023-05-22T14:15:17.821Z,3.75
2023-05-22T14:17:45.556Z,4.63
2023-05-22T14:20:13.110Z,3.72
2023-05-22T14:22:55.833Z,6.18
2023-05-22T14:25:25.832Z,2.83
2023-05-22T14:27:53.202Z,3.10
2023-05-22T14:30:20.727Z,4.20
2023-05-22T14:32:48.772Z,4.13
2023-05-22T14:35:16.750Z,3.55
2023-05-22T14:37:46.031Z,3.45
2023-05-22T14:40:13.391Z,3.30
2023-05-22T14:42:40.696Z,3.78
2023-05-22T14:45:08.524Z,3.78
2023-05-22T14:47:35.862Z,3.05
2023-05-22T14:50:18.249Z,3.88
2023-05-22T14:52:46.106Z,4.22
2023-05-22T14:55:13.492Z,4.00
2023-05-22T14:57:40.889Z,3.30
2023-05-22T15:00:09.925Z,3.35
2023-05-22T15:02:37.687Z,3.67
2023-05-22T15:05:06.984Z,2.90
2023-05-22T15:10:05.950Z,4.60
2023-05-22T15:12:33.299Z,3.55
2023-05-22T15:15:00.962Z,3.13
2023-05-22T15:17:28.503Z,3.42
2023-05-22T15:19:55.961Z,3.50
2023-05-22T15:22:23.243Z,4.55
2023-05-22T15:25:07.061Z,3.63
2023-05-22T15:27:35.906Z,3.40
2023-05-22T15:30:04.757Z,4.53
2023-05-22T15:32:36.175Z,3.42
2023-05-22T15:35:05.482Z,3.22
2023-05-22T15:37:33.881Z,3.80
2023-05-22T15:40:03.008Z,3.17
2023-05-22T15:42:30.745Z,3.42
2023-05-22T15:45:00.124Z,3.58
2023-05-22T15:47:29.742Z,3.10
2023-05-22T15:49:57.074Z,3.40
2023-05-22T15:52:24.666Z,3.97
2023-05-22T15:54:52.436Z,3.05
2023-05-22T15:57:19.982Z,3.80
2023-05-22T15:59:50.566Z,3.42
2023-05-22T16:02:18.879Z,3.05
2023-05-22T16:04:46.444Z,3.40
2023-05-22T16:07:13.828Z,3.55
2023-05-22T16:09:43.297Z,3.42
2023-05-22T16:12:10.718Z,4.03
2023-05-22T16:14:39.806Z,3.70
2023-05-22T16:17:07.458Z,3.65
2023-05-22T16:19:34.974Z,3.47
2023-05-22T16:22:03.039Z,4.20
2023-05-22T16:24:30.394Z,4.50
2023-05-22T16:26:59.562Z,3.58
2023-05-22T16:29:26.958Z,4.05
2023-05-22T16:31:56.562Z,4.93
2023-05-22T16:34:24.132Z,4.60
2023-05-22T16:36:51.478Z,4.85
2023-05-22T16:39:18.841Z,5.10
2023-05-22T16:41:46.235Z,4.30
2023-05-22T16:44:13.800Z,4.22
2023-05-22T16:46:41.082Z,5.65
2023-05-22T16:49:08.481Z,11.60
2023-05-22T16:51:36.263Z,9.65
2023-05-22T16:54:03.650Z,10.90
2023-05-22T16:56:34.061Z,13.52
2023-05-22T16:59:02.060Z,11.68
2023-05-22T17:01:29.574Z,10.73
2023-05-22T17:03:57.123Z,12.68
2023-05-22T17:06:24.498Z,14.60
2023-05-22T17:08:51.983Z,12.90
2023-05-22T17:11:19.348Z,15.20
2023-05-22T17:13:46.720Z,27.13
2023-05-22T17:16:14.136Z,28.63
2023-05-22T17:18:41.526Z,48.05
2023-05-22T17:21:11.639Z,38.88
2023-05-22T17:23:38.996Z,33.10
2023-05-22T17:26:06.550Z,27.80
2023-05-22T17:28:33.913Z,23.77
2023-05-22T17:31:01.270Z,22.83
2023-05-22T17:33:28.704Z,18.35
2023-05-22T17:35:56.023Z,22.35
2023-05-22T17:38:23.404Z,15.07
2023-05-22T17:40:52.124Z,17.73
2023-05-22T17:43:19.981Z,14.50
2023-05-22T17:45:50.511Z,15.85
2023-05-22T17:48:23.413Z,20.85
2023-05-22T17:50:52.077Z,16.70
2023-05-22T17:53:20.779Z,20.35
2023-05-22T17:55:50.190Z,19.75
2023-05-22T17:58:19.063Z,20.02
2023-05-22T18:00:48.762Z,19.38
2023-05-22T18:03:20.179Z,19.67
2023-05-22T18:05:51.325Z,21.65
2023-05-22T18:08:21.131Z,15.85
2023-05-22T18:10:49.236Z,18.30
2023-05-22T18:13:17.272Z,18.92
2023-05-22T18:15:44.724Z,19.20
2023-05-22T18:18:13.064Z,18.52
2023-05-22T18:20:40.877Z,20.50
2023-05-22T18:23:08.429Z,21.27
2023-05-22T18:25:35.808Z,19.52
2023-05-22T18:28:03.162Z,19.60
2023-05-22T18:30:30.553Z,21.52
2023-05-22T18:32:57.933Z,20.45
2023-05-22T18:35:25.502Z,23.75
2023-05-22T18:37:52.788Z,21.77
2023-05-22T18:40:20.208Z,23.65
2023-05-22T18:42:47.572Z,20.20
2023-05-22T18:45:15.231Z,20.75
2023-05-22T18:47:42.833Z,18.48
2023-05-22T18:50:10.793Z,15.80
2023-05-22T18:52:38.267Z,17.45
2023-05-22T18:55:06.022Z,11.98
2023-05-22T18:57:33.394Z,17.17
2023-05-22T19:00:00.745Z,13.73
2023-05-22T19:02:28.229Z,12.38
2023-05-22T19:04:55.716Z,12.63
2023-05-22T19:07:23.129Z,12.65
2023-05-22T19:09:50.697Z,12.43
2023-05-22T19:12:18.064Z,15.30
2023-05-22T19:14:48.271Z,13.75
2023-05-22T19:17:16.095Z,18.40
2023-05-22T19:19:43.571Z,10.88
2023-05-22T19:22:11.025Z,14.90
2023-05-22T19:24:38.551Z,12.95
2023-05-22T19:27:06.085Z,10.98
2023-05-22T19:29:33.404Z,12.32
2023-05-22T19:32:00.833Z,12.98
2023-05-22T19:34:28.258Z,13.18
2023-05-22T19:36:57.854Z,14.15
2023-05-22T19:39:25.597Z,10.95
2023-05-22T19:41:54.464Z,11.48
2023-05-22T19:44:21.866Z,13.30
2023-05-22T19:46:49.262Z,10.63
2023-05-22T19:49:16.761Z,13.73
2023-05-22T19:51:44.224Z,14.95
2023-05-22T19:54:11.634Z,13.65
2023-05-22T19:56:39.133Z,12.65
2023-05-22T19:59:06.500Z,12.05
2023-05-22T20:01:33.939Z,13.70
2023-05-22T20:04:01.397Z,18.83
2023-05-22T20:06:31.575Z,14.30
2023-05-22T20:08:59.015Z,13.63
2023-05-22T20:11:29.670Z,12.50
2023-05-22T20:13:57.098Z,11.63
2023-05-22T20:16:29.101Z,10.45
2023-05-22T20:18:56.894Z,11.43
2023-05-22T20:21:24.754Z,11.52
2023-05-22T20:23:52.952Z,10.65
2023-05-22T20:26:20.809Z,12.48
2023-05-22T20:28:48.213Z,9.70
2023-05-22T20:31:15.716Z,13.25
2023-05-22T20:33:43.236Z,9.48
2023-05-22T20:36:10.822Z,10.20
2023-05-22T20:38:38.107Z,10.18
2023-05-22T20:41:08.144Z,8.05
2023-05-22T20:43:37.001Z,10.88
2023-05-22T20:46:04.394Z,10.32
2023-05-22T20:48:31.713Z,8.80
2023-05-22T20:50:59.085Z,9.73
2023-05-22T20:53:26.423Z,9.85
2023-05-22T20:55:53.792Z,10.32
2023-05-22T20:58:23.005Z,9.05
2023-05-22T21:00:50.868Z,11.35
2023-05-22T21:03:18.226Z,9.00
2023-05-22T21:05:45.664Z,9.45
2023-05-22T21:08:13.051Z,12.00
2023-05-22T21:10:40.608Z,9.13
2023-05-22T21:13:08.461Z,10.00
2023-05-22T21:15:35.769Z,10.57
2023-05-22T21:18:03.204Z,11.18
2023-05-22T21:20:30.607Z,9.25
2023-05-22T21:22:57.988Z,9.38
2023-05-22T21:25:25.320Z,7.65
2023-05-22T21:27:54.469Z,6.93
2023-05-22T21:30:22.066Z,8.82
2023-05-22T21:32:49.477Z,8.65
2023-05-22T21:35:16.866Z,6.85
2023-05-22T21:37:44.331Z,8.30
2023-05-22T21:40:12.186Z,8.90
2023-05-22T21:42:47.102Z,9.50
2023-05-22T21:45:15.078Z,8.60
2023-05-22T21:47:42.495Z,7.47
2023-05-22T21:50:10.337Z,7.95
2023-05-22T21:52:37.666Z,7.63
2023-05-22T21:55:05.922Z,7.20
2023-05-22T21:57:33.213Z,7.85
2023-05-22T22:00:00.655Z,7.50
2023-05-22T22:02:27.976Z,7.72
2023-05-22T22:04:55.378Z,6.82
2023-05-22T22:07:22.796Z,7.07
2023-05-22T22:09:50.752Z,9.02
2023-05-22T22:12:18.073Z,8.90
2023-05-22T22:14:45.481Z,6.70
2023-05-22T22:17:12.818Z,6.47
2023-05-22T22:19:41.787Z,7.25
2023-05-22T22:22:09.339Z,8.05
2023-05-22T22:24:37.013Z,8.20
2023-05-22T22:27:04.878Z,8.43
2023-05-22T22:29:32.201Z,6.03
2023-05-22T22:31:59.579Z,6.75
2023-05-22T22:34:26.970Z,7.43
2023-05-22T22:36:54.409Z,5.35
2023-05-22T22:39:21.953Z,5.82
2023-05-22T22:41:49.310Z,7.10
2023-05-22T22:44:16.602Z,6.78
2023-05-22T22:46:44.085Z,5.70
2023-05-22T22:49:11.416Z,5.45
2023-05-22T22:51:39.295Z,6.47
2023-05-22T22:54:06.649Z,7.45
2023-05-22T22:56:34.211Z,6.82
2023-05-22T22:59:02.168Z,7.28
2023-05-22T23:01:29.537Z,5.15
2023-05-22T23:03:56.878Z,6.40
2023-05-22T23:06:24.176Z,7.95
2023-05-22T23:08:51.473Z,5.47
2023-05-22T23:11:18.817Z,6.57
2023-05-22T23:13:46.174Z,7.22
2023-05-22T23:16:13.548Z,6.68
2023-05-22T23:18:41.099Z,7.90
2023-05-22T23:21:08.362Z,7.13
2023-05-22T23:23:35.662Z,6.90
2023-05-22T23:26:03.055Z,8.15
2023-05-22T23:28:30.445Z,7.82
2023-05-22T23:30:57.755Z,7.43
2023-05-22T23:33:25.038Z,7.15
2023-05-22T23:35:52.361Z,7.60
2023-05-22T23:38:19.657Z,8.48
2023-05-22T23:40:46.974Z,6.18
2023-05-22T23:43:14.298Z,8.20
2023-05-22T23:45:41.905Z,5.40
2023-05-22T23:48:09.567Z,6.75
2023-05-22T23:50:36.894Z,6.20
2023-05-22T23:53:04.219Z,7.57
2023-05-22T23:55:31.612Z,8.02
2023-05-22T23:57:58.923Z,6.85
